createdAt,value
2023-05-14T00:01:15.325Z,9.23
2023-05-14T00:03:41.898Z,9.17
2023-05-14T00:06:09.644Z,8.87
2023-05-14T00:08:37.301Z,9.10
2023-05-14T00:11:03.806Z,9.03
2023-05-14T00:13:30.342Z,9.53
2023-05-14T00:15:56.908Z,8.70
2023-05-14T00:18:23.419Z,9.80
2023-05-14T00:20:54.724Z,8.83
2023-05-14T00:23:21.853Z,10.60
2023-05-14T00:25:48.346Z,9.90
2023-05-14T00:28:14.839Z,9.60
2023-05-14T00:30:41.456Z,9.27
2023-05-14T00:33:08.004Z,10.00
2023-05-14T00:35:35.964Z,9.30
2023-05-14T00:38:02.826Z,8.85
2023-05-14T00:40:29.399Z,10.17
2023-05-14T00:42:55.932Z,9.05
2023-05-14T00:45:22.612Z,9.43
2023-05-14T00:47:49.275Z,9.77
2023-05-14T00:50:16.294Z,9.27
2023-05-14T00:52:42.940Z,8.77
2023-05-14T00:55:09.637Z,9.87
2023-05-14T00:57:36.413Z,9.97
2023-05-14T01:00:03.628Z,9.50
2023-05-14T01:02:30.217Z,9.50
2023-05-14T01:04:57.079Z,10.50
2023-05-14T01:07:30.676Z,9.33
2023-05-14T01:10:00.650Z,9.97
2023-05-14T01:12:59.714Z,10.47
2023-05-14T01:15:31.589Z,9.65
2023-05-14T01:17:59.735Z,9.90
2023-05-14T01:20:29.277Z,10.90
2023-05-14T01:22:55.818Z,10.77
2023-05-14T01:25:22.365Z,10.97
2023-05-14T01:28:01.164Z,10.53
2023-05-14T01:30:39.832Z,10.30
2023-05-14T01:33:07.151Z,10.95
2023-05-14T01:35:33.701Z,10.63
2023-05-14T01:38:00.960Z,10.23
2023-05-14T01:40:27.535Z,10.37
2023-05-14T01:42:54.241Z,10.10
2023-05-14T01:45:21.362Z,10.57
2023-05-14T01:47:49.117Z,9.10
2023-05-14T01:50:16.019Z,9.30
2023-05-14T01:52:42.571Z,9.50
2023-05-14T01:55:09.257Z,10.30
2023-05-14T01:57:35.755Z,9.03
2023-05-14T02:00:02.329Z,8.70
2023-05-14T02:02:28.877Z,9.07
2023-05-14T02:04:55.463Z,8.07
2023-05-14T02:07:21.954Z,8.20
2023-05-14T02:09:48.480Z,8.13
2023-05-14T02:12:14.974Z,8.13
2023-05-14T02:14:41.557Z,8.37
2023-05-14T02:17:08.448Z,7.80
2023-05-14T02:19:34.989Z,8.40
2023-05-14T02:22:01.619Z,8.30
2023-05-14T02:24:28.181Z,8.53
2023-05-14T02:26:54.798Z,8.33
2023-05-14T02:29:21.351Z,8.47
2023-05-14T02:31:47.981Z,8.10
2023-05-14T02:34:14.640Z,7.40
2023-05-14T02:36:41.187Z,8.40
2023-05-14T02:39:07.647Z,9.03
2023-05-14T02:41:34.123Z,9.20
2023-05-14T02:44:00.685Z,8.40
2023-05-14T02:46:27.176Z,7.90
2023-05-14T02:48:53.736Z,8.43
2023-05-14T02:51:20.421Z,7.63
2023-05-14T02:53:47.044Z,8.80
2023-05-14T02:56:13.496Z,7.83
2023-05-14T02:58:40.018Z,9.00
2023-05-14T03:01:06.658Z,8.27
2023-05-14T03:03:33.935Z,7.63
2023-05-14T03:06:00.912Z,8.00
2023-05-14T03:08:27.386Z,8.10
2023-05-14T03:10:53.886Z,8.80
2023-05-14T03:13:21.488Z,9.20
2023-05-14T03:15:48.649Z,9.23
2023-05-14T03:18:15.215Z,8.03
2023-05-14T03:20:41.771Z,8.30
2023-05-14T03:23:08.323Z,8.93
2023-05-14T03:25:34.976Z,8.90
2023-05-14T03:28:01.490Z,9.37
2023-05-14T03:30:27.997Z,10.43
2023-05-14T03:32:54.544Z,9.77
2023-05-14T03:35:21.109Z,8.10
2023-05-14T03:37:47.608Z,8.20
2023-05-14T03:40:14.128Z,7.63
2023-05-14T03:42:40.644Z,8.03
2023-05-14T03:45:07.590Z,8.77
2023-05-14T03:47:34.161Z,8.67
2023-05-14T03:50:00.784Z,8.30
2023-05-14T03:52:27.309Z,7.50
2023-05-14T03:54:53.768Z,7.63
2023-05-14T03:57:20.267Z,7.97
2023-05-14T03:59:46.739Z,7.90
2023-05-14T04:02:14.534Z,8.30
2023-05-14T04:04:42.342Z,7.70
2023-05-14T04:07:09.113Z,7.00
2023-05-14T04:09:35.657Z,8.37
2023-05-14T04:12:02.210Z,7.67
2023-05-14T04:14:28.732Z,7.67
2023-05-14T04:16:55.190Z,7.47
2023-05-14T04:19:21.719Z,7.60
2023-05-14T04:21:48.268Z,6.80
2023-05-14T04:24:14.745Z,7.23
2023-05-14T04:26:41.274Z,8.10
2023-05-14T04:29:07.769Z,7.50
2023-05-14T04:31:34.297Z,7.47
2023-05-14T04:34:00.998Z,7.10
2023-05-14T04:36:27.445Z,7.37
2023-05-14T04:38:53.960Z,7.37
2023-05-14T04:41:21.183Z,6.00
2023-05-14T04:43:49.397Z,6.53
2023-05-14T04:46:15.896Z,6.63
2023-05-14T04:48:42.454Z,6.80
2023-05-14T04:51:08.983Z,6.70
2023-05-14T04:53:35.463Z,5.77
2023-05-14T04:56:02.342Z,5.50
2023-05-14T04:58:29.296Z,5.97
2023-05-14T05:00:55.859Z,5.50
2023-05-14T05:03:22.579Z,5.68
2023-05-14T05:05:49.130Z,5.13
2023-05-14T05:08:15.608Z,4.53
2023-05-14T05:10:42.112Z,4.60
2023-05-14T05:13:08.596Z,5.00
2023-05-14T05:15:35.301Z,4.00
2023-05-14T05:18:02.118Z,4.97
2023-05-14T05:20:29.036Z,4.55
2023-05-14T05:22:55.526Z,4.93
2023-05-14T05:25:22.003Z,4.03
2023-05-14T05:27:48.573Z,3.30
2023-05-14T05:30:15.055Z,4.00
2023-05-14T05:32:41.653Z,3.67
2023-05-14T05:35:08.403Z,3.33
2023-05-14T05:37:34.876Z,2.70
2023-05-14T05:40:01.370Z,3.20
2023-05-14T05:42:27.883Z,3.13
2023-05-14T05:44:54.427Z,3.38
2023-05-14T05:47:21.067Z,3.05
2023-05-14T05:49:47.703Z,2.90
2023-05-14T05:52:14.212Z,2.65
2023-05-14T05:54:40.873Z,2.63
2023-05-14T05:57:07.425Z,2.40
2023-05-14T05:59:33.921Z,2.70
2023-05-14T06:02:00.609Z,2.70
2023-05-14T06:04:27.148Z,2.38
2023-05-14T06:06:53.999Z,2.17
2023-05-14T06:09:20.953Z,2.63
2023-05-14T06:11:47.417Z,2.33
2023-05-14T06:14:13.970Z,2.90
2023-05-14T06:16:40.620Z,2.88
2023-05-14T06:19:08.485Z,2.60
2023-05-14T06:21:35.090Z,2.55
2023-05-14T06:24:01.582Z,2.92
2023-05-14T06:26:28.088Z,2.65
2023-05-14T06:28:54.715Z,2.33
2023-05-14T06:31:21.325Z,1.90
2023-05-14T06:33:47.886Z,2.00
2023-05-14T06:36:14.458Z,1.98
2023-05-14T06:38:40.940Z,2.40
2023-05-14T06:41:07.653Z,2.10
2023-05-14T06:43:34.213Z,2.50
2023-05-14T06:46:01.390Z,2.25
2023-05-14T06:48:29.994Z,2.05
2023-05-14T06:50:56.615Z,1.70
2023-05-14T06:53:23.121Z,1.60
2023-05-14T06:55:49.817Z,1.58
2023-05-14T06:58:16.379Z,1.65
2023-05-14T07:00:42.884Z,1.80
2023-05-14T07:03:09.480Z,2.00
2023-05-14T07:05:36.135Z,2.10
2023-05-14T07:08:02.702Z,1.73
2023-05-14T07:10:29.188Z,2.58
2023-05-14T07:12:55.767Z,2.13
2023-05-14T07:15:22.335Z,1.98
2023-05-14T07:17:49.094Z,1.60
2023-05-14T07:20:15.660Z,1.48
2023-05-14T07:22:42.224Z,1.75
2023-05-14T07:25:08.813Z,1.70
2023-05-14T07:27:35.412Z,1.67
2023-05-14T07:30:02.020Z,1.75
2023-05-14T07:32:28.550Z,2.05
2023-05-14T07:34:55.093Z,1.58
2023-05-14T07:37:24.174Z,2.25
2023-05-14T07:39:50.999Z,1.85
2023-05-14T07:42:31.860Z,2.63
2023-05-14T07:45:01.424Z,2.35
2023-05-14T07:47:27.976Z,2.58
2023-05-14T07:49:55.148Z,1.98
2023-05-14T07:52:21.821Z,2.40
2023-05-14T07:54:50.538Z,2.38
2023-05-14T07:57:17.387Z,2.78
2023-05-14T07:59:43.934Z,2.55
2023-05-14T08:02:12.856Z,2.40
2023-05-14T08:04:39.566Z,2.20
2023-05-14T08:07:07.452Z,1.88
2023-05-14T08:09:34.159Z,2.22
2023-05-14T08:12:01.150Z,2.28
2023-05-14T08:14:27.672Z,2.40
2023-05-14T08:16:54.274Z,1.95
2023-05-14T08:19:20.909Z,2.40
2023-05-14T08:21:47.498Z,2.60
2023-05-14T08:24:14.286Z,2.38
2023-05-14T08:26:40.808Z,2.38
2023-05-14T08:29:09.299Z,2.67
2023-05-14T08:31:37.112Z,2.58
2023-05-14T08:34:03.717Z,2.65
2023-05-14T08:36:30.428Z,2.90
2023-05-14T08:38:56.965Z,3.35
2023-05-14T08:41:23.507Z,2.30
2023-05-14T08:44:13.002Z,2.75
2023-05-14T08:46:39.638Z,2.20
2023-05-14T08:49:17.468Z,2.30
2023-05-14T08:51:49.996Z,2.90
2023-05-14T08:54:17.143Z,2.78
2023-05-14T08:56:46.781Z,2.60
2023-05-14T08:59:13.451Z,2.78
2023-05-14T09:01:41.586Z,2.28
2023-05-14T09:04:08.716Z,2.67
2023-05-14T09:06:38.416Z,2.40
2023-05-14T09:09:04.979Z,2.90
2023-05-14T09:11:31.561Z,2.67
2023-05-14T09:13:58.137Z,2.33
2023-05-14T09:16:25.852Z,2.60
2023-05-14T09:18:52.506Z,2.10
2023-05-14T09:21:19.072Z,2.45
2023-05-14T09:23:45.830Z,2.42
2023-05-14T09:26:17.708Z,2.10
2023-05-14T09:28:44.326Z,2.00
2023-05-14T09:31:11.774Z,2.13
2023-05-14T09:33:38.333Z,1.95
2023-05-14T09:36:05.113Z,1.80
2023-05-14T09:38:34.600Z,1.70
2023-05-14T09:41:01.226Z,1.48
2023-05-14T09:43:27.723Z,1.88
2023-05-14T09:45:54.272Z,1.85
2023-05-14T09:48:22.441Z,2.05
2023-05-14T09:50:49.139Z,1.88
2023-05-14T09:53:15.869Z,1.63
2023-05-14T09:55:42.458Z,1.52
2023-05-14T09:58:08.949Z,1.90
2023-05-14T10:00:35.545Z,1.80
2023-05-14T10:03:06.032Z,1.63
2023-05-14T10:05:36.285Z,1.85
2023-05-14T10:08:11.350Z,1.63
2023-05-14T10:10:37.911Z,1.60
2023-05-14T10:13:04.972Z,1.55
2023-05-14T10:15:37.319Z,1.80
2023-05-14T10:18:04.329Z,1.77
2023-05-14T10:20:30.960Z,1.60
2023-05-14T10:22:58.269Z,1.73
2023-05-14T10:25:24.808Z,1.42
2023-05-14T10:27:51.343Z,1.45
2023-05-14T10:30:17.829Z,2.30
2023-05-14T10:32:44.485Z,1.40
2023-05-14T10:35:17.887Z,1.42
2023-05-14T10:37:44.899Z,1.58
2023-05-14T10:40:13.133Z,1.45
2023-05-14T10:42:43.667Z,2.10
2023-05-14T10:45:11.390Z,1.90
2023-05-14T10:47:44.804Z,1.60
2023-05-14T10:50:11.874Z,1.25
2023-05-14T10:52:38.524Z,1.40
2023-05-14T10:55:10.230Z,1.50
2023-05-14T10:57:37.847Z,1.40
2023-05-14T11:00:07.303Z,1.80
2023-05-14T11:02:34.901Z,1.63
2023-05-14T11:05:15.760Z,1.50
2023-05-14T11:07:43.445Z,1.42
2023-05-14T11:10:10.954Z,1.40
2023-05-14T11:12:38.378Z,1.50
2023-05-14T11:15:06.452Z,1.75
2023-05-14T11:17:33.044Z,1.50
2023-05-14T11:20:00.042Z,1.65
2023-05-14T11:22:26.768Z,1.30
2023-05-14T11:24:53.381Z,1.10
2023-05-14T11:27:19.971Z,1.30
2023-05-14T11:29:49.229Z,1.10
2023-05-14T11:32:16.108Z,1.20
2023-05-14T11:34:44.876Z,1.40
2023-05-14T11:37:12.815Z,1.17
2023-05-14T11:39:39.466Z,1.30
2023-05-14T11:42:09.837Z,1.10
2023-05-14T11:44:38.150Z,1.23
2023-05-14T11:47:05.314Z,1.25
2023-05-14T11:49:32.470Z,1.20
2023-05-14T11:51:59.328Z,1.23
2023-05-14T11:54:29.133Z,1.10
2023-05-14T11:56:56.179Z,1.15
2023-05-14T11:59:29.066Z,1.30
2023-05-14T12:01:55.950Z,1.73
2023-05-14T12:04:22.943Z,1.17
2023-05-14T12:06:49.994Z,1.17
2023-05-14T12:09:17.718Z,1.38
2023-05-14T12:11:45.314Z,1.40
2023-05-14T12:14:15.571Z,1.10
2023-05-14T12:16:42.797Z,0.95
2023-05-14T12:19:10.897Z,1.00
2023-05-14T12:21:37.613Z,1.08
2023-05-14T12:24:04.305Z,1.00
2023-05-14T12:26:37.133Z,0.90
2023-05-14T12:29:03.791Z,0.90
2023-05-14T12:31:30.981Z,0.75
2023-05-14T12:33:57.540Z,0.93
2023-05-14T12:36:24.086Z,0.60
2023-05-14T12:38:50.868Z,0.60
2023-05-14T12:41:17.954Z,0.60
2023-05-14T12:43:44.507Z,0.50
2023-05-14T12:46:10.996Z,0.70
2023-05-14T12:48:37.504Z,0.60
2023-05-14T12:51:04.040Z,0.75
2023-05-14T12:53:30.582Z,0.70
2023-05-14T12:55:58.284Z,0.70
2023-05-14T12:58:24.909Z,0.80
2023-05-14T13:00:51.486Z,0.63
2023-05-14T13:03:18.139Z,0.70
2023-05-14T13:05:44.671Z,0.50
2023-05-14T13:08:11.164Z,0.68
2023-05-14T13:10:37.732Z,0.60
2023-05-14T13:13:04.231Z,0.50
2023-05-14T13:15:32.559Z,0.60
2023-05-14T13:17:59.264Z,0.65
2023-05-14T13:20:27.680Z,0.60
2023-05-14T13:22:54.200Z,0.60
2023-05-14T13:25:20.957Z,0.55
2023-05-14T13:27:47.486Z,0.80
2023-05-14T13:30:14.107Z,0.50
2023-05-14T13:32:42.236Z,0.70
2023-05-14T13:35:09.164Z,0.60
2023-05-14T13:37:35.955Z,0.63
2023-05-14T13:40:04.593Z,0.70
2023-05-14T13:42:31.067Z,0.80
2023-05-14T13:44:58.854Z,0.75
2023-05-14T13:47:25.661Z,0.60
2023-05-14T13:49:52.625Z,0.50
2023-05-14T13:52:19.213Z,0.63
2023-05-14T13:54:45.820Z,0.70
2023-05-14T13:57:12.391Z,0.70
2023-05-14T13:59:39.066Z,0.70
2023-05-14T14:02:05.674Z,0.68
2023-05-14T14:04:32.347Z,0.70
2023-05-14T14:06:58.940Z,0.77
2023-05-14T14:09:25.532Z,0.75
2023-05-14T14:11:53.434Z,1.10
2023-05-14T14:14:20.349Z,0.80
2023-05-14T14:16:46.888Z,0.70
2023-05-14T14:19:14.440Z,0.75
2023-05-14T14:21:42.960Z,0.77
2023-05-14T14:24:09.582Z,0.90
2023-05-14T14:26:37.306Z,0.80
2023-05-14T14:29:03.898Z,1.00
2023-05-14T14:31:30.963Z,0.70
2023-05-14T14:33:57.641Z,0.80
2023-05-14T14:36:24.163Z,0.70
2023-05-14T14:38:50.676Z,0.70
2023-05-14T14:41:17.275Z,0.60
2023-05-14T14:43:43.951Z,0.80
2023-05-14T14:46:10.501Z,0.65
2023-05-14T14:48:41.390Z,0.80
2023-05-14T14:51:08.190Z,0.80
2023-05-14T14:53:35.062Z,0.68
2023-05-14T14:56:02.127Z,0.70
2023-05-14T14:58:28.737Z,0.75
2023-05-14T15:00:55.864Z,0.70
2023-05-14T15:03:22.842Z,0.95
2023-05-14T15:05:49.666Z,0.70
2023-05-14T15:08:16.924Z,0.75
2023-05-14T15:10:44.445Z,0.70
2023-05-14T15:13:11.530Z,0.60
2023-05-14T15:15:38.144Z,0.65
2023-05-14T15:18:04.841Z,0.65
2023-05-14T15:20:32.111Z,0.50
2023-05-14T15:22:58.657Z,0.80
2023-05-14T15:25:26.321Z,0.70
2023-05-14T15:27:53.178Z,0.70
2023-05-14T15:30:19.808Z,0.82
2023-05-14T15:32:46.860Z,0.60
2023-05-14T15:35:13.421Z,0.70
2023-05-14T15:37:40.666Z,0.77
2023-05-14T15:40:10.487Z,0.70
2023-05-14T15:42:37.470Z,0.68
2023-05-14T15:45:04.235Z,0.70
2023-05-14T15:47:30.997Z,0.60
2023-05-14T15:49:57.571Z,0.63
2023-05-14T15:52:24.331Z,0.80
2023-05-14T15:54:51.113Z,0.60
2023-05-14T15:57:19.899Z,0.65
2023-05-14T15:59:46.799Z,0.70
2023-05-14T16:02:13.755Z,0.65
2023-05-14T16:04:40.292Z,0.80
2023-05-14T16:07:09.929Z,0.73
2023-05-14T16:09:36.589Z,0.70
2023-05-14T16:12:03.262Z,0.73
2023-05-14T16:14:29.868Z,0.75
2023-05-14T16:16:56.464Z,0.70
2023-05-14T16:19:23.085Z,0.60
2023-05-14T16:21:49.674Z,0.82
2023-05-14T16:24:17.744Z,0.70
2023-05-14T16:26:44.334Z,0.70
2023-05-14T16:29:10.922Z,0.70
2023-05-14T16:31:37.623Z,0.70
2023-05-14T16:34:04.281Z,0.80
2023-05-14T16:36:31.527Z,0.80
2023-05-14T16:39:07.200Z,0.80
2023-05-14T16:41:34.912Z,0.70
2023-05-14T16:44:01.448Z,0.80
2023-05-14T16:46:29.445Z,0.80
2023-05-14T16:48:56.341Z,0.70
2023-05-14T16:51:22.916Z,1.00
2023-05-14T16:53:49.487Z,0.80
2023-05-14T16:56:16.587Z,0.85
2023-05-14T16:58:43.176Z,0.90
2023-05-14T17:01:10.166Z,0.90
2023-05-14T17:03:36.911Z,0.70
2023-05-14T17:06:04.781Z,0.90
2023-05-14T17:08:33.661Z,0.73
2023-05-14T17:11:00.427Z,0.80
2023-05-14T17:13:27.013Z,0.82
2023-05-14T17:15:53.526Z,1.05
2023-05-14T17:18:20.061Z,0.80
2023-05-14T17:20:46.588Z,2.45
2023-05-14T17:23:13.441Z,1.23
2023-05-14T17:25:39.946Z,1.50
2023-05-14T17:28:06.693Z,1.25
2023-05-14T17:30:33.269Z,0.82
2023-05-14T17:33:00.142Z,0.95
2023-05-14T17:35:26.806Z,0.85
2023-05-14T17:37:53.322Z,0.90
2023-05-14T17:40:19.991Z,0.95
2023-05-14T17:42:46.744Z,1.08
2023-05-14T17:45:13.562Z,1.00
2023-05-14T17:47:40.461Z,1.90
2023-05-14T17:50:07.652Z,1.25
2023-05-14T17:52:34.363Z,0.80
2023-05-14T17:55:00.958Z,0.70
2023-05-14T17:57:27.641Z,0.80
2023-05-14T17:59:54.305Z,0.70
2023-05-14T18:02:20.893Z,0.80
2023-05-14T18:04:47.401Z,0.90
2023-05-14T18:07:14.135Z,0.80
2023-05-14T18:09:40.696Z,0.80
2023-05-14T18:12:07.441Z,1.20
2023-05-14T18:14:33.898Z,1.60
2023-05-14T18:17:00.462Z,1.92
2023-05-14T18:19:26.970Z,1.65
2023-05-14T18:21:55.600Z,1.92
2023-05-14T18:24:22.487Z,1.65
2023-05-14T18:26:49.008Z,1.98
2023-05-14T18:29:15.507Z,2.60
2023-05-14T18:31:42.019Z,1.90
2023-05-14T18:34:08.618Z,1.80
2023-05-14T18:36:35.436Z,2.03
2023-05-14T18:39:02.590Z,1.75
2023-05-14T18:41:29.197Z,2.53
2023-05-14T18:43:55.865Z,2.47
2023-05-14T18:46:22.822Z,3.25
2023-05-14T18:48:49.934Z,2.47
2023-05-14T18:51:16.706Z,2.25
2023-05-14T18:53:43.271Z,2.25
2023-05-14T18:56:10.112Z,2.85
2023-05-14T18:58:36.791Z,2.50
2023-05-14T19:01:03.711Z,2.90
2023-05-14T19:03:30.294Z,2.20
2023-05-14T19:05:57.775Z,2.90
2023-05-14T19:08:24.305Z,2.38
2023-05-14T19:10:51.171Z,2.67
2023-05-14T19:13:17.792Z,1.75
2023-05-14T19:15:44.403Z,1.55
2023-05-14T19:18:13.024Z,1.75
2023-05-14T19:20:39.576Z,2.03
2023-05-14T19:23:06.279Z,1.20
2023-05-14T19:25:34.128Z,1.10
2023-05-14T19:28:01.919Z,1.20
2023-05-14T19:30:28.412Z,1.42
2023-05-14T19:32:55.174Z,1.10
2023-05-14T19:35:21.825Z,1.88
2023-05-14T19:37:48.476Z,1.50
2023-05-14T19:40:15.001Z,1.70
2023-05-14T19:42:41.597Z,2.00
2023-05-14T19:45:08.185Z,1.88
2023-05-14T19:47:34.673Z,1.77
2023-05-14T19:50:01.251Z,1.85
2023-05-14T19:52:27.772Z,1.90
2023-05-14T19:54:54.341Z,2.33
2023-05-14T19:57:20.893Z,1.90
2023-05-14T19:59:47.543Z,2.28
2023-05-14T20:02:18.176Z,2.42
2023-05-14T20:04:46.205Z,2.30
2023-05-14T20:07:15.470Z,2.10
2023-05-14T20:09:42.044Z,2.08
2023-05-14T20:12:09.045Z,1.83
2023-05-14T20:14:36.032Z,1.98
2023-05-14T20:17:02.587Z,1.73
2023-05-14T20:19:29.152Z,2.28
2023-05-14T20:21:56.585Z,2.22
2023-05-14T20:24:23.190Z,1.60
2023-05-14T20:26:49.794Z,1.80
2023-05-14T20:29:16.385Z,1.77
2023-05-14T20:31:42.912Z,2.20
2023-05-14T20:34:09.597Z,2.30
2023-05-14T20:36:36.226Z,2.30
2023-05-14T20:39:02.961Z,2.10
2023-05-14T20:41:29.502Z,2.53
2023-05-14T20:43:56.133Z,2.20
2023-05-14T20:46:22.744Z,1.65
2023-05-14T20:48:49.343Z,1.75
2023-05-14T20:51:15.846Z,2.33
2023-05-14T20:53:42.357Z,2.40
2023-05-14T20:56:08.851Z,2.55
2023-05-14T20:58:35.546Z,3.00
2023-05-14T21:01:02.349Z,3.50
2023-05-14T21:03:29.004Z,3.95
2023-05-14T21:05:56.907Z,4.47
2023-05-14T21:08:23.479Z,3.55
2023-05-14T21:10:49.958Z,5.18
2023-05-14T21:13:16.517Z,5.75
2023-05-14T21:15:43.052Z,7.00
2023-05-14T21:18:09.661Z,6.47
2023-05-14T21:20:36.254Z,8.30
2023-05-14T21:23:02.778Z,7.88
2023-05-14T21:25:29.292Z,7.80
2023-05-14T21:27:56.364Z,7.60
2023-05-14T21:30:22.924Z,8.70
2023-05-14T21:32:49.451Z,7.53
2023-05-14T21:35:16.035Z,7.63
2023-05-14T21:37:42.538Z,8.02
2023-05-14T21:40:15.147Z,8.20
2023-05-14T21:42:41.634Z,8.98
2023-05-14T21:45:08.374Z,8.63
2023-05-14T21:47:34.982Z,8.00
2023-05-14T21:50:01.617Z,8.13
2023-05-14T21:52:28.177Z,6.93
2023-05-14T21:54:54.706Z,7.20
2023-05-14T21:57:21.222Z,6.80
2023-05-14T21:59:47.762Z,6.32
2023-05-14T22:02:14.649Z,6.25
2023-05-14T22:04:41.167Z,6.30
2023-05-14T22:07:07.703Z,6.07
2023-05-14T22:09:34.241Z,6.00
2023-05-14T22:12:03.022Z,6.60
2023-05-14T22:14:29.571Z,7.28
2023-05-14T22:16:56.159Z,7.60
2023-05-14T22:19:22.827Z,6.90
2023-05-14T22:21:49.302Z,7.13
2023-05-14T22:24:15.849Z,7.35
2023-05-14T22:26:42.370Z,6.78
2023-05-14T22:29:08.956Z,7.50
2023-05-14T22:31:35.526Z,7.20
2023-05-14T22:34:02.062Z,6.45
2023-05-14T22:36:28.596Z,7.15
2023-05-14T22:38:55.072Z,7.15
2023-05-14T22:41:22.274Z,6.95
2023-05-14T22:43:49.273Z,6.80
2023-05-14T22:46:16.078Z,5.28
2023-05-14T22:48:42.601Z,5.13
2023-05-14T22:51:09.177Z,4.75
2023-05-14T22:53:35.698Z,4.30
2023-05-14T22:56:02.237Z,3.50
2023-05-14T22:58:28.708Z,3.30
2023-05-14T23:00:55.256Z,3.00
2023-05-14T23:03:21.752Z,3.33
2023-05-14T23:05:48.260Z,3.03
2023-05-14T23:08:14.769Z,3.00
2023-05-14T23:10:41.243Z,2.53
2023-05-14T23:13:07.717Z,2.55
2023-05-14T23:15:34.256Z,2.80
2023-05-14T23:18:00.830Z,2.47
2023-05-14T23:20:27.412Z,2.83
2023-05-14T23:22:54.179Z,2.53
2023-05-14T23:25:20.759Z,2.00
2023-05-14T23:27:48.175Z,2.58
2023-05-14T23:30:14.716Z,2.47
2023-05-14T23:32:41.259Z,2.78
2023-05-14T23:35:07.978Z,3.20
2023-05-14T23:37:35.876Z,3.38
2023-05-14T23:40:02.383Z,2.80
2023-05-14T23:42:28.892Z,2.72
2023-05-14T23:44:55.478Z,3.35
2023-05-14T23:47:22.005Z,3.33
2023-05-14T23:49:48.663Z,4.00
2023-05-14T23:52:15.214Z,4.18
2023-05-14T23:54:41.723Z,4.20
2023-05-14T23:57:08.254Z,3.55
2023-05-14T23:59:34.932Z,4.15
